sensor_id;sensor_type;location;lat;lon;timestamp;temperature;humidity
3308;DHT22;1666;48.898;9.182;2022-09-01T00:00:48;16.40;27.40
3308;DHT22;1666;48.898;9.182;2022-09-01T00:03:20;16.40;27.80
3308;DHT22;1666;48.898;9.182;2022-09-01T00:05:52;16.40;27.70
3308;DHT22;1666;48.898;9.182;2022-09-01T00:08:23;16.30;28.40
3308;DHT22;1666;48.898;9.182;2022-09-01T00:10:53;16.30;27.80
3308;DHT22;1666;48.898;9.182;2022-09-01T00:13:22;16.30;27.60
3308;DHT22;1666;48.898;9.182;2022-09-01T00:15:55;16.30;27.70
3308;DHT22;1666;48.898;9.182;2022-09-01T00:18:26;16.30;27.70
3308;DHT22;1666;48.898;9.182;2022-09-01T00:20:55;16.30;27.10
3308;DHT22;1666;48.898;9.182;2022-09-01T00:23:26;16.20;26.90
3308;DHT22;1666;48.898;9.182;2022-09-01T00:25:56;16.30;27.00
3308;DHT22;1666;48.898;9.182;2022-09-01T00:28:26;16.20;27.40
3308;DHT22;1666;48.898;9.182;2022-09-01T00:30:59;16.20;27.60
3308;DHT22;1666;48.898;9.182;2022-09-01T00:33:31;16.20;27.60
3308;DHT22;1666;48.898;9.182;2022-09-01T00:36:01;16.10;27.50
3308;DHT22;1666;48.898;9.182;2022-09-01T00:38:32;16.10;27.90
3308;DHT22;1666;48.898;9.182;2022-09-01T00:41:02;16.10;27.70
3308;DHT22;1666;48.898;9.182;2022-09-01T00:43:38;16.00;28.00
3308;DHT22;1666;48.898;9.182;2022-09-01T00:46:17;16.00;28.30
3308;DHT22;1666;48.898;9.182;2022-09-01T00:48:53;16.00;28.50
3308;DHT22;1666;48.898;9.182;2022-09-01T00:51:26;15.90;28.20
3308;DHT22;1666;48.898;9.182;2022-09-01T00:53:58;15.90;28.70
3308;DHT22;1666;48.898;9.182;2022-09-01T00:56:31;15.90;28.40
3308;DHT22;1666;48.898;9.182;2022-09-01T00:59:04;15.80;28.70
3308;DHT22;1666;48.898;9.182;2022-09-01T01:01:37;15.80;29.30
3308;DHT22;1666;48.898;9.182;2022-09-01T01:04:08;15.80;28.80
3308;DHT22;1666;48.898;9.182;2022-09-01T01:06:42;15.80;28.80
3308;DHT22;1666;48.898;9.182;2022-09-01T01:09:16;15.80;28.70
3308;DHT22;1666;48.898;9.182;2022-09-01T01:11:47;15.80;28.60
3308;DHT22;1666;48.898;9.182;2022-09-01T01:14:18;15.80;29.10
3308;DHT22;1666;48.898;9.182;2022-09-01T01:16:50;15.80;28.60
3308;DHT22;1666;48.898;9.182;2022-09-01T01:19:26;15.70;28.70
3308;DHT22;1666;48.898;9.182;2022-09-01T01:22:16;15.70;28.90
3308;DHT22;1666;48.898;9.182;2022-09-01T01:25:15;15.80;28.40
3308;DHT22;1666;48.898;9.182;2022-09-01T01:27:45;15.70;28.60
3308;DHT22;1666;48.898;9.182;2022-09-01T01:30:16;15.70;28.40
3308;DHT22;1666;48.898;9.182;2022-09-01T01:32:46;15.70;28.50
3308;DHT22;1666;48.898;9.182;2022-09-01T01:35:17;15.60;28.20
3308;DHT22;1666;48.898;9.182;2022-09-01T01:37:51;15.60;28.20
3308;DHT22;1666;48.898;9.182;2022-09-01T01:40:23;15.60;28.20
3308;DHT22;1666;48.898;9.182;2022-09-01T01:42:55;15.60;28.20
3308;DHT22;1666;48.898;9.182;2022-09-01T01:45:27;15.50;28.50
3308;DHT22;1666;48.898;9.182;2022-09-01T01:47:57;15.50;28.30
3308;DHT22;1666;48.898;9.182;2022-09-01T01:50:35;15.50;28.80
3308;DHT22;1666;48.898;9.182;2022-09-01T01:53:07;15.40;29.20
3308;DHT22;1666;48.898;9.182;2022-09-01T01:55:41;15.40;29.20
3308;DHT22;1666;48.898;9.182;2022-09-01T01:58:11;15.40;29.20
3308;DHT22;1666;48.898;9.182;2022-09-01T02:00:42;15.40;29.20
3308;DHT22;1666;48.898;9.182;2022-09-01T02:03:14;15.40;29.20
3308;DHT22;1666;48.898;9.182;2022-09-01T02:05:46;15.40;29.20
3308;DHT22;1666;48.898;9.182;2022-09-01T02:08:17;15.40;29.20
3308;DHT22;1666;48.898;9.182;2022-09-01T02:10:52;15.30;29.10
3308;DHT22;1666;48.898;9.182;2022-09-01T02:13:24;15.30;29.60
3308;DHT22;1666;48.898;9.182;2022-09-01T02:15:59;15.30;29.40
3308;DHT22;1666;48.898;9.182;2022-09-01T02:18:32;15.20;30.00
3308;DHT22;1666;48.898;9.182;2022-09-01T02:21:04;15.20;30.20
3308;DHT22;1666;48.898;9.182;2022-09-01T02:23:42;15.20;30.80
3308;DHT22;1666;48.898;9.182;2022-09-01T02:26:14;15.20;30.50
3308;DHT22;1666;48.898;9.182;2022-09-01T02:28:46;15.20;30.50
3308;DHT22;1666;48.898;9.182;2022-09-01T02:31:21;15.10;31.10
3308;DHT22;1666;48.898;9.182;2022-09-01T02:33:54;15.10;31.40
3308;DHT22;1666;48.898;9.182;2022-09-01T02:36:24;15.10;31.70
3308;DHT22;1666;48.898;9.182;2022-09-01T02:38:54;15.00;31.50
3308;DHT22;1666;48.898;9.182;2022-09-01T02:41:27;15.10;31.80
3308;DHT22;1666;48.898;9.182;2022-09-01T02:44:00;15.10;31.60
3308;DHT22;1666;48.898;9.182;2022-09-01T02:46:38;15.00;31.20
3308;DHT22;1666;48.898;9.182;2022-09-01T02:49:11;15.00;32.60
3308;DHT22;1666;48.898;9.182;2022-09-01T02:51:48;15.00;32.00
3308;DHT22;1666;48.898;9.182;2022-09-01T02:54:20;15.00;31.80
3308;DHT22;1666;48.898;9.182;2022-09-01T02:56:54;15.00;32.20
3308;DHT22;1666;48.898;9.182;2022-09-01T02:59:26;14.90;32.60
3308;DHT22;1666;48.898;9.182;2022-09-01T03:01:56;14.90;32.70
3308;DHT22;1666;48.898;9.182;2022-09-01T03:04:26;14.90;32.80
3308;DHT22;1666;48.898;9.182;2022-09-01T03:07:01;14.80;32.70
3308;DHT22;1666;48.898;9.182;2022-09-01T03:09:31;14.80;33.40
3308;DHT22;1666;48.898;9.182;2022-09-01T03:12:05;14.70;33.90
3308;DHT22;1666;48.898;9.182;2022-09-01T03:14:36;14.80;33.90
3308;DHT22;1666;48.898;9.182;2022-09-01T03:17:06;14.80;33.70
3308;DHT22;1666;48.898;9.182;2022-09-01T03:19:36;14.80;33.60
3308;DHT22;1666;48.898;9.182;2022-09-01T03:22:10;14.70;34.10
3308;DHT22;1666;48.898;9.182;2022-09-01T03:24:40;14.70;34.10
3308;DHT22;1666;48.898;9.182;2022-09-01T03:27:12;14.70;34.10
3308;DHT22;1666;48.898;9.182;2022-09-01T03:29:42;14.70;34.50
3308;DHT22;1666;48.898;9.182;2022-09-01T03:32:12;14.80;34.50
3308;DHT22;1666;48.898;9.182;2022-09-01T03:34:42;14.80;34.20
3308;DHT22;1666;48.898;9.182;2022-09-01T03:37:12;14.70;33.90
3308;DHT22;1666;48.898;9.182;2022-09-01T03:39:42;14.70;34.80
3308;DHT22;1666;48.898;9.182;2022-09-01T03:42:18;14.70;34.30
3308;DHT22;1666;48.898;9.182;2022-09-01T03:44:51;14.70;34.20
3308;DHT22;1666;48.898;9.182;2022-09-01T03:47:22;14.70;34.40
3308;DHT22;1666;48.898;9.182;2022-09-01T03:49:53;14.70;34.10
3308;DHT22;1666;48.898;9.182;2022-09-01T03:52:23;14.70;34.30
3308;DHT22;1666;48.898;9.182;2022-09-01T03:54:57;14.70;34.70
3308;DHT22;1666;48.898;9.182;2022-09-01T03:57:29;14.70;34.80
3308;DHT22;1666;48.898;9.182;2022-09-01T04:00:00;14.70;34.90
3308;DHT22;1666;48.898;9.182;2022-09-01T04:02:30;14.70;34.50
3308;DHT22;1666;48.898;9.182;2022-09-01T04:05:00;14.70;35.00
3308;DHT22;1666;48.898;9.182;2022-09-01T04:07:34;14.70;34.50
3308;DHT22;1666;48.898;9.182;2022-09-01T04:10:05;14.70;34.60
3308;DHT22;1666;48.898;9.182;2022-09-01T04:12:40;14.70;34.90
3308;DHT22;1666;48.898;9.182;2022-09-01T04:15:12;14.70;34.80
3308;DHT22;1666;48.898;9.182;2022-09-01T04:17:43;14.70;35.00
3308;DHT22;1666;48.898;9.182;2022-09-01T04:20:25;14.70;35.00
3308;DHT22;1666;48.898;9.182;2022-09-01T04:22:55;14.70;34.70
3308;DHT22;1666;48.898;9.182;2022-09-01T04:25:25;14.60;35.10
3308;DHT22;1666;48.898;9.182;2022-09-01T04:27:58;14.60;35.50
3308;DHT22;1666;48.898;9.182;2022-09-01T04:30:30;14.50;35.60
3308;DHT22;1666;48.898;9.182;2022-09-01T04:33:00;14.50;35.90
3308;DHT22;1666;48.898;9.182;2022-09-01T04:35:30;14.40;36.40
3308;DHT22;1666;48.898;9.182;2022-09-01T04:38:03;14.40;36.60
3308;DHT22;1666;48.898;9.182;2022-09-01T04:40:36;14.30;37.00
3308;DHT22;1666;48.898;9.182;2022-09-01T04:43:09;14.30;37.20
3308;DHT22;1666;48.898;9.182;2022-09-01T04:45:39;14.40;37.20
3308;DHT22;1666;48.898;9.182;2022-09-01T04:48:10;14.40;36.80
3308;DHT22;1666;48.898;9.182;2022-09-01T04:50:40;14.40;36.70
3308;DHT22;1666;48.898;9.182;2022-09-01T04:53:10;14.40;36.60
3308;DHT22;1666;48.898;9.182;2022-09-01T04:55:41;14.50;36.70
3308;DHT22;1666;48.898;9.182;2022-09-01T04:58:18;14.50;36.70
3308;DHT22;1666;48.898;9.182;2022-09-01T05:00:49;14.70;35.10
3308;DHT22;1666;48.898;9.182;2022-09-01T05:03:22;14.90;32.80
3308;DHT22;1666;48.898;9.182;2022-09-01T05:05:52;15.20;29.40
3308;DHT22;1666;48.898;9.182;2022-09-01T05:08:24;15.40;27.70
3308;DHT22;1666;48.898;9.182;2022-09-01T05:10:58;15.60;24.60
3308;DHT22;1666;48.898;9.182;2022-09-01T05:13:32;16.00;19.80
3308;DHT22;1666;48.898;9.182;2022-09-01T05:16:07;16.20;19.00
3308;DHT22;1666;48.898;9.182;2022-09-01T05:18:40;16.30;18.00
3308;DHT22;1666;48.898;9.182;2022-09-01T05:21:11;16.70;15.40
3308;DHT22;1666;48.898;9.182;2022-09-01T05:23:43;16.90;12.50
3308;DHT22;1666;48.898;9.182;2022-09-01T05:26:16;16.90;10.70
3308;DHT22;1666;48.898;9.182;2022-09-01T05:28:50;16.80;11.20
3308;DHT22;1666;48.898;9.182;2022-09-01T05:31:22;16.70;12.40
3308;DHT22;1666;48.898;9.182;2022-09-01T05:33:54;16.60;14.20
3308;DHT22;1666;48.898;9.182;2022-09-01T05:36:24;15.80;18.20
3308;DHT22;1666;48.898;9.182;2022-09-01T05:38:59;15.50;23.50
3308;DHT22;1666;48.898;9.182;2022-09-01T05:41:31;15.30;25.70
3308;DHT22;1666;48.898;9.182;2022-09-01T05:44:04;15.30;26.80
3308;DHT22;1666;48.898;9.182;2022-09-01T05:46:37;15.30;26.20
3308;DHT22;1666;48.898;9.182;2022-09-01T05:49:09;15.20;27.50
3308;DHT22;1666;48.898;9.182;2022-09-01T05:51:46;15.30;28.90
3308;DHT22;1666;48.898;9.182;2022-09-01T05:54:19;15.30;28.20
3308;DHT22;1666;48.898;9.182;2022-09-01T05:56:52;15.30;28.40
3308;DHT22;1666;48.898;9.182;2022-09-01T05:59:41;15.50;26.50
3308;DHT22;1666;48.898;9.182;2022-09-01T06:02:12;15.50;25.80
3308;DHT22;1666;48.898;9.182;2022-09-01T06:04:43;15.50;26.30
3308;DHT22;1666;48.898;9.182;2022-09-01T06:07:15;15.60;27.60
3308;DHT22;1666;48.898;9.182;2022-09-01T06:09:51;15.70;26.00
3308;DHT22;1666;48.898;9.182;2022-09-01T06:12:21;15.90;26.10
3308;DHT22;1666;48.898;9.182;2022-09-01T06:14:55;15.80;25.80
3308;DHT22;1666;48.898;9.182;2022-09-01T06:17:27;15.60;25.70
3308;DHT22;1666;48.898;9.182;2022-09-01T06:20:03;15.80;26.20
3308;DHT22;1666;48.898;9.182;2022-09-01T06:22:38;15.90;26.10
3308;DHT22;1666;48.898;9.182;2022-09-01T06:25:08;15.90;26.10
3308;DHT22;1666;48.898;9.182;2022-09-01T06:27:38;16.10;24.20
3308;DHT22;1666;48.898;9.182;2022-09-01T06:30:14;16.30;24.40
3308;DHT22;1666;48.898;9.182;2022-09-01T06:32:50;16.50;23.20
3308;DHT22;1666;48.898;9.182;2022-09-01T06:35:21;16.60;22.60
3308;DHT22;1666;48.898;9.182;2022-09-01T06:37:55;16.30;22.20
3308;DHT22;1666;48.898;9.182;2022-09-01T06:40:26;16.50;21.60
3308;DHT22;1666;48.898;9.182;2022-09-01T06:42:56;16.70;21.20
3308;DHT22;1666;48.898;9.182;2022-09-01T06:45:30;16.90;19.70
3308;DHT22;1666;48.898;9.182;2022-09-01T06:48:00;16.90;19.80
3308;DHT22;1666;48.898;9.182;2022-09-01T06:50:30;17.00;18.30
3308;DHT22;1666;48.898;9.182;2022-09-01T06:53:20;17.10;18.50
3308;DHT22;1666;48.898;9.182;2022-09-01T06:56:00;17.40;16.70
3308;DHT22;1666;48.898;9.182;2022-09-01T06:58:31;17.40;15.30
3308;DHT22;1666;48.898;9.182;2022-09-01T07:01:08;17.40;15.20
3308;DHT22;1666;48.898;9.182;2022-09-01T07:03:42;17.60;13.40
3308;DHT22;1666;48.898;9.182;2022-09-01T07:06:13;17.80;13.20
3308;DHT22;1666;48.898;9.182;2022-09-01T07:09:04;17.90;11.00
3308;DHT22;1666;48.898;9.182;2022-09-01T07:11:53;17.80;9.90
3308;DHT22;1666;48.898;9.182;2022-09-01T07:14:44;18.00;8.10
3308;DHT22;1666;48.898;9.182;2022-09-01T07:17:37;17.90;7.10
3308;DHT22;1666;48.898;9.182;2022-09-01T07:20:09;18.00;6.50
3308;DHT22;1666;48.898;9.182;2022-09-01T07:22:49;17.90;6.80
3308;DHT22;1666;48.898;9.182;2022-09-01T07:25:38;17.80;7.00
3308;DHT22;1666;48.898;9.182;2022-09-01T07:28:28;17.80;6.30
3308;DHT22;1666;48.898;9.182;2022-09-01T07:31:03;17.90;6.00
3308;DHT22;1666;48.898;9.182;2022-09-01T07:33:59;17.90;5.70
3308;DHT22;1666;48.898;9.182;2022-09-01T07:36:50;18.10;4.30
3308;DHT22;1666;48.898;9.182;2022-09-01T07:39:43;18.30;3.30
3308;DHT22;1666;48.898;9.182;2022-09-01T07:42:34;18.30;2.80
3308;DHT22;1666;48.898;9.182;2022-09-01T07:45:24;18.60;1.70
3308;DHT22;1666;48.898;9.182;2022-09-01T07:47:55;18.70;1.00
3308;DHT22;1666;48.898;9.182;2022-09-01T07:50:32;18.70;1.00
3308;DHT22;1666;48.898;9.182;2022-09-01T07:53:24;18.90;1.00
3308;DHT22;1666;48.898;9.182;2022-09-01T07:55:59;18.90;1.00
3308;DHT22;1666;48.898;9.182;2022-09-01T07:58:29;18.90;1.00
3308;DHT22;1666;48.898;9.182;2022-09-01T08:00:59;19.00;1.00
3308;DHT22;1666;48.898;9.182;2022-09-01T08:03:30;19.20;1.00
3308;DHT22;1666;48.898;9.182;2022-09-01T08:06:06;19.30;1.00
3308;DHT22;1666;48.898;9.182;2022-09-01T08:08:38;19.40;1.00
3308;DHT22;1666;48.898;9.182;2022-09-01T08:11:08;19.40;1.00
3308;DHT22;1666;48.898;9.182;2022-09-01T08:13:38;19.30;1.00
3308;DHT22;1666;48.898;9.182;2022-09-01T08:16:09;19.20;1.00
3308;DHT22;1666;48.898;9.182;2022-09-01T08:18:45;19.20;1.00
3308;DHT22;1666;48.898;9.182;2022-09-01T08:21:22;19.70;1.00
3308;DHT22;1666;48.898;9.182;2022-09-01T08:23:54;19.80;1.00
3308;DHT22;1666;48.898;9.182;2022-09-01T08:26:25;19.60;1.00
3308;DHT22;1666;48.898;9.182;2022-09-01T08:28:55;19.50;1.00
3308;DHT22;1666;48.898;9.182;2022-09-01T08:31:25;19.30;1.00
3308;DHT22;1666;48.898;9.182;2022-09-01T08:33:57;19.50;1.00
3308;DHT22;1666;48.898;9.182;2022-09-01T08:36:30;19.90;1.00
3308;DHT22;1666;48.898;9.182;2022-09-01T08:39:01;19.60;1.00
3308;DHT22;1666;48.898;9.182;2022-09-01T08:41:40;19.90;1.00
3308;DHT22;1666;48.898;9.182;2022-09-01T08:44:21;19.70;1.00
3308;DHT22;1666;48.898;9.182;2022-09-01T08:47:03;19.70;1.00
3308;DHT22;1666;48.898;9.182;2022-09-01T08:49:41;19.70;1.00
3308;DHT22;1666;48.898;9.182;2022-09-01T08:52:22;19.70;1.00
3308;DHT22;1666;48.898;9.182;2022-09-01T08:54:58;19.70;1.00
3308;DHT22;1666;48.898;9.182;2022-09-01T08:57:32;19.50;1.00
3308;DHT22;1666;48.898;9.182;2022-09-01T09:00:04;19.60;1.00
3308;DHT22;1666;48.898;9.182;2022-09-01T09:02:50;19.50;1.00
3308;DHT22;1666;48.898;9.182;2022-09-01T09:05:30;19.50;1.00
3308;DHT22;1666;48.898;9.182;2022-09-01T09:08:21;19.80;1.00
3308;DHT22;1666;48.898;9.182;2022-09-01T09:11:01;19.80;1.00
3308;DHT22;1666;48.898;9.182;2022-09-01T09:13:40;19.90;1.00
3308;DHT22;1666;48.898;9.182;2022-09-01T09:16:17;19.90;1.00
3308;DHT22;1666;48.898;9.182;2022-09-01T09:18:50;19.80;1.00
3308;DHT22;1666;48.898;9.182;2022-09-01T09:21:26;19.90;1.00
3308;DHT22;1666;48.898;9.182;2022-09-01T09:24:08;20.00;1.00
3308;DHT22;1666;48.898;9.182;2022-09-01T09:26:48;19.80;1.00
3308;DHT22;1666;48.898;9.182;2022-09-01T09:29:18;19.90;1.00
3308;DHT22;1666;48.898;9.182;2022-09-01T09:32:01;20.30;1.00
3308;DHT22;1666;48.898;9.182;2022-09-01T09:34:34;20.20;1.00
3308;DHT22;1666;48.898;9.182;2022-09-01T09:37:31;20.50;1.00
3308;DHT22;1666;48.898;9.182;2022-09-01T09:40:09;20.40;1.00
3308;DHT22;1666;48.898;9.182;2022-09-01T09:42:57;20.70;1.00
3308;DHT22;1666;48.898;9.182;2022-09-01T09:45:30;20.40;1.00
3308;DHT22;1666;48.898;9.182;2022-09-01T09:48:05;20.60;1.00
3308;DHT22;1666;48.898;9.182;2022-09-01T09:50:38;20.70;1.00
3308;DHT22;1666;48.898;9.182;2022-09-01T09:53:15;20.60;1.00
3308;DHT22;1666;48.898;9.182;2022-09-01T09:55:58;20.70;1.00
3308;DHT22;1666;48.898;9.182;2022-09-01T09:58:35;20.80;1.00
3308;DHT22;1666;48.898;9.182;2022-09-01T10:01:10;20.90;1.00
3308;DHT22;1666;48.898;9.182;2022-09-01T10:03:46;20.90;1.00
3308;DHT22;1666;48.898;9.182;2022-09-01T10:06:30;20.90;1.00
3308;DHT22;1666;48.898;9.182;2022-09-01T10:09:02;21.00;1.00
3308;DHT22;1666;48.898;9.182;2022-09-01T10:11:39;21.30;1.00
3308;DHT22;1666;48.898;9.182;2022-09-01T10:14:15;21.30;1.00
3308;DHT22;1666;48.898;9.182;2022-09-01T10:17:10;21.50;1.00
3308;DHT22;1666;48.898;9.182;2022-09-01T10:19:48;21.70;1.00
3308;DHT22;1666;48.898;9.182;2022-09-01T10:22:20;22.00;1.00
3308;DHT22;1666;48.898;9.182;2022-09-01T10:24:51;21.70;1.00
3308;DHT22;1666;48.898;9.182;2022-09-01T10:27:27;21.80;1.00
3308;DHT22;1666;48.898;9.182;2022-09-01T10:30:06;21.40;1.00
3308;DHT22;1666;48.898;9.182;2022-09-01T10:32:45;21.60;1.00
3308;DHT22;1666;48.898;9.182;2022-09-01T10:35:25;21.60;1.00
3308;DHT22;1666;48.898;9.182;2022-09-01T10:37:57;21.50;1.00
3308;DHT22;1666;48.898;9.182;2022-09-01T10:40:38;22.00;1.00
3308;DHT22;1666;48.898;9.182;2022-09-01T10:43:28;22.20;1.00
3308;DHT22;1666;48.898;9.182;2022-09-01T10:46:09;22.20;1.00
3308;DHT22;1666;48.898;9.182;2022-09-01T10:48:42;22.10;1.00
3308;DHT22;1666;48.898;9.182;2022-09-01T10:51:43;22.10;1.00
3308;DHT22;1666;48.898;9.182;2022-09-01T10:54:51;22.10;1.00
3308;DHT22;1666;48.898;9.182;2022-09-01T10:57:35;21.90;1.00
3308;DHT22;1666;48.898;9.182;2022-09-01T11:00:46;21.90;1.00
3308;DHT22;1666;48.898;9.182;2022-09-01T11:03:58;21.50;1.00
3308;DHT22;1666;48.898;9.182;2022-09-01T11:09:40;21.70;1.00
3308;DHT22;1666;48.898;9.182;2022-09-01T11:12:29;22.50;1.00
3308;DHT22;1666;48.898;9.182;2022-09-01T11:15:33;23.00;1.00
3308;DHT22;1666;48.898;9.182;2022-09-01T11:18:13;22.60;1.00
3308;DHT22;1666;48.898;9.182;2022-09-01T11:20:45;22.70;1.00
3308;DHT22;1666;48.898;9.182;2022-09-01T11:23:22;22.60;1.00
3308;DHT22;1666;48.898;9.182;2022-09-01T11:25:54;22.20;1.00
3308;DHT22;1666;48.898;9.182;2022-09-01T11:28:45;22.10;1.00
3308;DHT22;1666;48.898;9.182;2022-09-01T11:31:21;21.80;1.00
3308;DHT22;1666;48.898;9.182;2022-09-01T11:34:08;21.80;1.00
3308;DHT22;1666;48.898;9.182;2022-09-01T11:36:49;21.80;1.00
3308;DHT22;1666;48.898;9.182;2022-09-01T11:39:33;21.50;1.00
3308;DHT22;1666;48.898;9.182;2022-09-01T11:42:08;21.80;1.00
3308;DHT22;1666;48.898;9.182;2022-09-01T11:44:46;22.60;1.00
3308;DHT22;1666;48.898;9.182;2022-09-01T11:47:20;23.10;1.00
3308;DHT22;1666;48.898;9.182;2022-09-01T11:49:57;23.10;1.00
3308;DHT22;1666;48.898;9.182;2022-09-01T11:52:30;23.60;1.00
3308;DHT22;1666;48.898;9.182;2022-09-01T11:55:02;23.30;1.00
3308;DHT22;1666;48.898;9.182;2022-09-01T11:57:34;23.50;1.00
3308;DHT22;1666;48.898;9.182;2022-09-01T12:00:09;23.00;1.00
3308;DHT22;1666;48.898;9.182;2022-09-01T12:02:45;23.50;1.00
3308;DHT22;1666;48.898;9.182;2022-09-01T12:05:32;23.70;1.00
3308;DHT22;1666;48.898;9.182;2022-09-01T12:08:10;23.80;1.00
3308;DHT22;1666;48.898;9.182;2022-09-01T12:10:41;23.60;1.00
3308;DHT22;1666;48.898;9.182;2022-09-01T12:13:17;23.50;1.00
3308;DHT22;1666;48.898;9.182;2022-09-01T12:15:53;23.80;1.00
3308;DHT22;1666;48.898;9.182;2022-09-01T12:18:45;23.30;1.00
3308;DHT22;1666;48.898;9.182;2022-09-01T12:21:22;23.40;1.00
3308;DHT22;1666;48.898;9.182;2022-09-01T12:23:52;23.50;1.00
3308;DHT22;1666;48.898;9.182;2022-09-01T12:26:24;23.40;1.00
3308;DHT22;1666;48.898;9.182;2022-09-01T12:28:55;23.20;1.00
3308;DHT22;1666;48.898;9.182;2022-09-01T12:31:26;23.60;1.00
3308;DHT22;1666;48.898;9.182;2022-09-01T12:33:56;23.80;1.00
3308;DHT22;1666;48.898;9.182;2022-09-01T12:36:32;23.90;1.00
3308;DHT22;1666;48.898;9.182;2022-09-01T12:39:23;24.20;1.00
3308;DHT22;1666;48.898;9.182;2022-09-01T12:42:03;23.20;1.00
3308;DHT22;1666;48.898;9.182;2022-09-01T12:44:41;23.50;1.00
3308;DHT22;1666;48.898;9.182;2022-09-01T12:50:06;23.00;1.00
3308;DHT22;1666;48.898;9.182;2022-09-01T12:52:44;23.70;1.00
3308;DHT22;1666;48.898;9.182;2022-09-01T12:55:20;23.40;1.00
3308;DHT22;1666;48.898;9.182;2022-09-01T12:58:11;23.40;1.00
3308;DHT22;1666;48.898;9.182;2022-09-01T13:00:55;23.30;1.00
3308;DHT22;1666;48.898;9.182;2022-09-01T13:03:26;23.40;1.00
3308;DHT22;1666;48.898;9.182;2022-09-01T13:06:00;24.00;1.00
3308;DHT22;1666;48.898;9.182;2022-09-01T13:08:34;24.20;1.00
3308;DHT22;1666;48.898;9.182;2022-09-01T13:11:06;23.80;1.00
3308;DHT22;1666;48.898;9.182;2022-09-01T13:13:37;24.00;1.00
3308;DHT22;1666;48.898;9.182;2022-09-01T13:16:08;24.40;1.00
3308;DHT22;1666;48.898;9.182;2022-09-01T13:18:41;24.10;1.00
3308;DHT22;1666;48.898;9.182;2022-09-01T13:21:33;24.40;1.00
3308;DHT22;1666;48.898;9.182;2022-09-01T13:24:26;24.40;1.00
3308;DHT22;1666;48.898;9.182;2022-09-01T13:26:58;24.40;1.00
3308;DHT22;1666;48.898;9.182;2022-09-01T13:29:48;24.20;1.00
3308;DHT22;1666;48.898;9.182;2022-09-01T13:32:19;24.40;1.00
3308;DHT22;1666;48.898;9.182;2022-09-01T13:34:51;24.70;1.00
3308;DHT22;1666;48.898;9.182;2022-09-01T13:37:22;24.20;1.00
3308;DHT22;1666;48.898;9.182;2022-09-01T13:39:54;24.00;1.00
3308;DHT22;1666;48.898;9.182;2022-09-01T13:42:24;24.00;1.00
3308;DHT22;1666;48.898;9.182;2022-09-01T13:44:54;24.30;1.00
3308;DHT22;1666;48.898;9.182;2022-09-01T13:47:24;24.70;1.00
3308;DHT22;1666;48.898;9.182;2022-09-01T13:49:56;24.50;1.00
3308;DHT22;1666;48.898;9.182;2022-09-01T13:52:41;24.70;1.00
3308;DHT22;1666;48.898;9.182;2022-09-01T13:55:25;24.30;1.00
3308;DHT22;1666;48.898;9.182;2022-09-01T13:57:56;24.20;1.00
3308;DHT22;1666;48.898;9.182;2022-09-01T14:00:29;24.60;1.00
3308;DHT22;1666;48.898;9.182;2022-09-01T14:03:04;24.60;1.00
3308;DHT22;1666;48.898;9.182;2022-09-01T14:05:36;24.50;1.00
3308;DHT22;1666;48.898;9.182;2022-09-01T14:08:08;24.90;1.00
3308;DHT22;1666;48.898;9.182;2022-09-01T14:10:42;25.10;1.00
3308;DHT22;1666;48.898;9.182;2022-09-01T14:13:13;25.00;1.00
3308;DHT22;1666;48.898;9.182;2022-09-01T14:15:43;24.70;1.00
3308;DHT22;1666;48.898;9.182;2022-09-01T14:18:14;24.30;1.00
3308;DHT22;1666;48.898;9.182;2022-09-01T14:20:47;24.50;1.00
3308;DHT22;1666;48.898;9.182;2022-09-01T14:23:18;24.10;1.00
3308;DHT22;1666;48.898;9.182;2022-09-01T14:25:50;24.60;1.00
3308;DHT22;1666;48.898;9.182;2022-09-01T14:28:21;24.10;1.00
3308;DHT22;1666;48.898;9.182;2022-09-01T14:30:51;24.00;1.00
3308;DHT22;1666;48.898;9.182;2022-09-01T14:33:20;23.80;1.00
3308;DHT22;1666;48.898;9.182;2022-09-01T14:35:53;23.80;1.00
3308;DHT22;1666;48.898;9.182;2022-09-01T14:38:23;23.90;1.00
3308;DHT22;1666;48.898;9.182;2022-09-01T14:40:55;24.40;1.00
3308;DHT22;1666;48.898;9.182;2022-09-01T14:43:25;24.50;1.00
3308;DHT22;1666;48.898;9.182;2022-09-01T14:46:02;24.80;1.00
3308;DHT22;1666;48.898;9.182;2022-09-01T14:48:37;24.40;1.00
3308;DHT22;1666;48.898;9.182;2022-09-01T14:51:08;24.50;1.00
3308;DHT22;1666;48.898;9.182;2022-09-01T14:53:38;24.60;1.00
3308;DHT22;1666;48.898;9.182;2022-09-01T14:56:10;24.60;1.00
3308;DHT22;1666;48.898;9.182;2022-09-01T14:58:44;24.60;1.00
3308;DHT22;1666;48.898;9.182;2022-09-01T15:01:15;24.40;1.00
3308;DHT22;1666;48.898;9.182;2022-09-01T15:04:00;24.60;1.00
3308;DHT22;1666;48.898;9.182;2022-09-01T15:06:31;24.80;1.00
3308;DHT22;1666;48.898;9.182;2022-09-01T15:09:01;25.10;1.00
3308;DHT22;1666;48.898;9.182;2022-09-01T15:11:33;24.80;1.00
3308;DHT22;1666;48.898;9.182;2022-09-01T15:14:11;24.60;1.00
3308;DHT22;1666;48.898;9.182;2022-09-01T15:16:41;24.20;1.00
3308;DHT22;1666;48.898;9.182;2022-09-01T15:19:13;24.30;1.00
3308;DHT22;1666;48.898;9.182;2022-09-01T15:21:45;24.00;1.00
3308;DHT22;1666;48.898;9.182;2022-09-01T15:24:18;24.10;1.00
3308;DHT22;1666;48.898;9.182;2022-09-01T15:26:51;23.80;1.00
3308;DHT22;1666;48.898;9.182;2022-09-01T15:29:21;24.30;1.00
3308;DHT22;1666;48.898;9.182;2022-09-01T15:31:53;24.00;1.00
3308;DHT22;1666;48.898;9.182;2022-09-01T15:34:22;24.30;1.00
3308;DHT22;1666;48.898;9.182;2022-09-01T15:36:52;24.30;1.00
3308;DHT22;1666;48.898;9.182;2022-09-01T15:39:22;24.30;1.00
3308;DHT22;1666;48.898;9.182;2022-09-01T15:42:06;24.00;1.00
3308;DHT22;1666;48.898;9.182;2022-09-01T15:44:36;23.90;1.00
3308;DHT22;1666;48.898;9.182;2022-09-01T15:47:06;24.00;1.00
3308;DHT22;1666;48.898;9.182;2022-09-01T15:49:36;23.80;1.00
3308;DHT22;1666;48.898;9.182;2022-09-01T15:52:07;23.90;1.00
3308;DHT22;1666;48.898;9.182;2022-09-01T15:54:37;24.10;1.00
3308;DHT22;1666;48.898;9.182;2022-09-01T15:57:10;23.70;1.00
3308;DHT22;1666;48.898;9.182;2022-09-01T15:59:40;23.60;1.00
3308;DHT22;1666;48.898;9.182;2022-09-01T16:02:11;23.50;1.00
3308;DHT22;1666;48.898;9.182;2022-09-01T16:04:43;23.60;1.00
3308;DHT22;1666;48.898;9.182;2022-09-01T16:07:13;23.70;1.00
3308;DHT22;1666;48.898;9.182;2022-09-01T16:09:43;23.90;1.00
3308;DHT22;1666;48.898;9.182;2022-09-01T16:12:16;23.50;1.00
3308;DHT22;1666;48.898;9.182;2022-09-01T16:14:47;23.60;1.00
3308;DHT22;1666;48.898;9.182;2022-09-01T16:17:23;23.30;1.00
3308;DHT22;1666;48.898;9.182;2022-09-01T16:20:03;23.50;1.00
3308;DHT22;1666;48.898;9.182;2022-09-01T16:22:39;23.30;1.00
3308;DHT22;1666;48.898;9.182;2022-09-01T16:25:16;23.20;1.00
3308;DHT22;1666;48.898;9.182;2022-09-01T16:27:49;23.10;1.00
3308;DHT22;1666;48.898;9.182;2022-09-01T16:30:24;23.20;1.00
3308;DHT22;1666;48.898;9.182;2022-09-01T16:32:57;23.20;1.00
3308;DHT22;1666;48.898;9.182;2022-09-01T16:35:34;23.30;1.00
3308;DHT22;1666;48.898;9.182;2022-09-01T16:38:18;23.20;1.00
3308;DHT22;1666;48.898;9.182;2022-09-01T16:41:00;22.90;1.00
3308;DHT22;1666;48.898;9.182;2022-09-01T16:43:41;22.80;1.00
3308;DHT22;1666;48.898;9.182;2022-09-01T16:46:20;22.70;1.00
3308;DHT22;1666;48.898;9.182;2022-09-01T16:48:59;22.80;1.00
3308;DHT22;1666;48.898;9.182;2022-09-01T16:51:43;22.70;1.00
3308;DHT22;1666;48.898;9.182;2022-09-01T16:54:20;22.60;1.00
3308;DHT22;1666;48.898;9.182;2022-09-01T16:56:55;22.50;1.00
3308;DHT22;1666;48.898;9.182;2022-09-01T16:59:37;22.40;1.00
3308;DHT22;1666;48.898;9.182;2022-09-01T17:02:21;22.30;1.00
3308;DHT22;1666;48.898;9.182;2022-09-01T17:05:00;22.30;1.00
3308;DHT22;1666;48.898;9.182;2022-09-01T17:07:39;22.20;1.00
3308;DHT22;1666;48.898;9.182;2022-09-01T17:10:19;22.20;1.00